Time;durP1;ratioP1;P1;durP2;ratioP2;P2;SDS_P1;SDS_P2;PMS_P1;PMS_P2;Temp;Humidity;BMP_temperature;BMP_pressure;BME280_temperature;BME280_humidity;BME280_pressure;Samples;Min_cycle;Max_cycle;Signal;HPM_P1;HPM_P2
2021/09/27 00:01:00;;;;;;;9.63;6.72;;;486.60;2380.80;;;;;;4876138;29;20113;-57
2021/09/27 00:03:28;;;;;;;9.65;6.40;;;486.50;2380.80;;;;;;4875862;29;20053;-55
2021/09/27 00:05:55;;;;;;;9.27;5.47;;;486.70;2380.80;;;;;;4875990;29;20032;-56
2021/09/27 00:08:22;;;;;;;10.60;6.53;;;486.60;2380.80;;;;;;4876014;29;20512;-57
2021/09/27 00:10:55;;;;;;;14.48;6.82;;;486.60;2380.80;;;;;;4875923;29;20021;-55
2021/09/27 00:13:23;;;;;;;11.68;7.45;;;486.70;2380.80;;;;;;4875694;29;20108;-56
2021/09/27 00:15:50;;;;;;;14.65;6.38;;;486.80;2380.80;;;;;;4875543;29;20545;-60
2021/09/27 00:18:17;;;;;;;14.02;6.78;;;486.80;2380.80;;;;;;4875786;29;20400;-57
2021/09/27 00:20:48;;;;;;;10.02;5.97;;;486.70;2380.80;;;;;;4875935;29;20021;-58
2021/09/27 00:23:15;;;;;;;10.80;6.18;;;486.70;2380.80;;;;;;4875707;29;20080;-57
2021/09/27 00:25:41;;;;;;;11.50;6.25;;;486.70;2380.80;;;;;;4875482;29;20036;-57
2021/09/27 00:28:07;;;;;;;10.63;6.25;;;486.70;2380.80;;;;;;4875784;29;20028;-56
2021/09/27 00:30:33;;;;;;;12.70;6.05;;;486.60;2380.80;;;;;;4875390;29;20204;-57
2021/09/27 00:32:59;;;;;;;12.10;6.60;;;486.40;2380.80;;;;;;4875513;29;20029;-56
2021/09/27 00:35:29;;;;;;;14.63;7.15;;;461.70;2380.80;;;;;;4875705;29;20352;-57
2021/09/27 00:37:56;;;;;;;10.40;6.00;;;461.70;2380.80;;;;;;4875776;29;20045;-57
2021/09/27 00:40:27;;;;;;;13.38;6.13;;;486.40;2380.80;;;;;;4875499;29;20033;-56
2021/09/27 00:42:53;;;;;;;11.75;6.22;;;486.50;2380.80;;;;;;4875349;29;20040;-55
2021/09/27 00:45:22;;;;;;;10.38;6.13;;;486.40;2380.80;;;;;;4875402;29;20617;-55
2021/09/27 00:47:48;;;;;;;15.05;5.78;;;486.40;2380.80;;;;;;4875142;29;20428;-56
2021/09/27 00:50:18;;;;;;;17.33;6.18;;;461.70;2380.80;;;;;;4875348;29;20036;-56
2021/09/27 00:52:45;;;;;;;10.82;5.93;;;461.50;2380.80;;;;;;4875457;29;20359;-59
2021/09/27 00:55:14;;;;;;;10.35;5.72;;;461.60;2380.80;;;;;;4875365;29;20491;-55
2021/09/27 00:57:40;;;;;;;13.07;7.00;;;461.70;2380.80;;;;;;4875244;29;20093;-56
2021/09/27 01:00:10;;;;;;;9.20;5.80;;;461.70;2380.80;;;;;;4875143;29;20116;-57
2021/09/27 01:02:36;;;;;;;18.17;7.18;;;461.70;2380.80;;;;;;4875223;29;20072;-55
2021/09/27 01:05:04;;;;;;;12.30;6.90;;;461.60;2380.80;;;;;;4875242;29;20065;-58
2021/09/27 01:07:41;;;;;;;11.80;6.45;;;461.30;2380.80;;;;;;4875099;29;20032;-56
2021/09/27 01:10:22;;;;;;;12.95;6.05;;;461.20;2380.80;;;;;;4875576;29;20033;-56
2021/09/27 01:12:58;;;;;;;8.98;6.15;;;461.20;2380.80;;;;;;4879142;29;20112;-55
2021/09/27 01:15:51;;;;;;;10.43;6.32;;;461.10;2380.80;;;;;;4879204;29;20032;-56
2021/09/27 01:18:42;;;;;;;11.35;7.57;;;461.00;2380.80;;;;;;4878937;29;20081;-59
2021/09/27 01:21:20;;;;;;;13.15;6.97;;;461.00;2380.80;;;;;;4878749;29;20036;-56
2021/09/27 01:24:04;;;;;;;12.23;6.15;;;460.90;2380.80;;;;;;4879107;29;20092;-55
2021/09/27 01:26:41;;;;;;;9.63;6.47;;;460.80;2380.80;;;;;;4878771;29;20417;-55
2021/09/27 01:29:19;;;;;;;12.70;6.88;;;460.90;2380.80;;;;;;4878727;29;20440;-56
2021/09/27 01:32:15;;;;;;;13.95;7.45;;;461.10;2380.80;;;;;;4878655;29;20114;-56
2021/09/27 01:35:07;;;;;;;13.75;7.07;;;435.50;2355.20;;;;;;4878392;29;20037;-62
2021/09/27 01:37:55;;;;;;;11.50;6.60;;;461.20;2380.80;;;;;;4878851;29;20029;-62
2021/09/27 01:40:30;;;;;;;19.50;6.88;;;461.20;2380.80;;;;;;4878491;29;20044;-60
2021/09/27 01:43:21;;;;;;;15.38;6.65;;;461.30;2380.80;;;;;;4878683;29;20029;-61
2021/09/27 01:46:05;;;;;;;15.00;7.30;;;461.40;2380.80;;;;;;4878553;29;20033;-61
2021/09/27 01:48:34;;;;;;;;;;;461.40;2380.80;;;;;;4878707;29;20060;-61
2021/09/27 01:51:16;;;;;;;12.43;6.65;;;461.40;2380.80;;;;;;4878499;29;19999;-56
2021/09/27 01:54:01;;;;;;;9.80;6.20;;;461.00;2380.80;;;;;;4878346;29;20081;-62
2021/09/27 01:56:44;;;;;;;11.10;6.32;;;460.90;2380.80;;;;;;4878604;29;20086;-61
2021/09/27 01:59:31;;;;;;;10.73;7.50;;;460.80;2380.80;;;;;;4878003;29;20033;-62
2021/09/27 02:02:10;;;;;;;13.13;7.13;;;460.80;2380.80;;;;;;4878453;29;20484;-62
2021/09/27 02:05:12;;;;;;;11.75;5.78;;;460.90;2380.80;;;;;;4878219;29;20073;-63
2021/09/27 02:07:47;;;;;;;16.77;6.30;;;460.90;2380.80;;;;;;4878208;29;20052;-62
2021/09/27 02:10:49;;;;;;;17.50;7.22;;;460.90;2380.80;;;;;;4877933;29;20044;-55
2021/09/27 02:13:40;;;;;;;18.80;6.55;;;461.00;2380.80;;;;;;4802515;29;20043;-57
2021/09/27 02:16:26;;;;;;;17.75;5.72;;;461.10;2380.80;;;;;;4802358;29;20054;-61
2021/09/27 02:19:05;;;;;;;11.52;7.55;;;461.10;2380.80;;;;;;4802127;29;20031;-54
2021/09/27 02:21:37;;;;;;;13.50;6.18;;;461.20;2380.80;;;;;;4801552;29;20037;-54
2021/09/27 02:24:23;;;;;;;16.63;7.22;;;461.20;2380.80;;;;;;4802139;29;20051;-61
2021/09/27 02:26:50;;;;;;;20.90;6.35;;;461.30;2380.80;;;;;;4801932;29;20039;-60
2021/09/27 02:29:16;;;;;;;16.83;6.90;;;461.30;2380.80;;;;;;4802303;29;20050;-62
2021/09/27 02:31:51;;;;;;;11.98;6.40;;;461.30;2380.80;;;;;;4801676;29;20468;-61
2021/09/27 02:34:39;;;;;;;11.73;6.43;;;461.10;2380.80;;;;;;4802317;29;20053;-62
2021/09/27 02:37:29;;;;;;;9.80;5.28;;;460.90;2380.80;;;;;;4801851;29;20104;-62
2021/09/27 02:40:10;;;;;;;19.58;6.13;;;460.90;2380.80;;;;;;4801952;29;20115;-63
2021/09/27 02:42:43;;;;;;;11.65;5.97;;;461.00;2380.80;;;;;;4802061;29;20498;-61
2021/09/27 02:45:10;;;;;;;12.68;6.63;;;461.10;2380.80;;;;;;4801792;29;20035;-61
2021/09/27 02:47:50;;;;;;;14.85;6.30;;;461.00;2380.80;;;;;;4803604;29;20039;-63
2021/09/27 02:50:27;;;;;;;18.63;6.13;;;460.90;2380.80;;;;;;4877309;29;20112;-62
2021/09/27 02:52:54;;;;;;;16.33;6.75;;;460.90;2380.80;;;;;;4860651;29;20484;-63
2021/09/27 02:55:29;;;;;;;14.23;6.90;;;460.80;2380.80;;;;;;4877169;29;20391;-56
2021/09/27 02:58:07;;;;;;;12.68;6.13;;;460.80;2380.80;;;;;;4877120;29;20040;-54
2021/09/27 03:00:51;;;;;;;16.58;6.32;;;461.00;2380.80;;;;;;4876821;29;20033;-58
2021/09/27 03:03:38;;;;;;;14.43;5.97;;;461.10;2380.80;;;;;;4877245;29;20041;-55
2021/09/27 03:06:38;;;;;;;11.98;5.78;;;461.10;2380.80;;;;;;4877135;29;20029;-56
2021/09/27 03:09:30;;;;;;;13.32;6.10;;;461.10;2380.80;;;;;;4877078;29;20112;-55
2021/09/27 03:12:02;;;;;;;18.67;7.00;;;461.10;2380.80;;;;;;4873329;29;20131;-56
2021/09/27 03:14:48;;;;;;;9.85;5.85;;;461.10;2380.80;;;;;;4877047;29;20061;-57
2021/09/27 03:17:25;;;;;;;11.90;6.55;;;461.00;2380.80;;;;;;4877046;29;20055;-55
2021/09/27 03:20:10;;;;;;;20.17;7.45;;;461.10;2380.80;;;;;;4876888;29;20104;-55
2021/09/27 03:22:46;;;;;;;17.08;5.90;;;461.00;2380.80;;;;;;4876698;29;20037;-54
2021/09/27 03:25:33;;;;;;;19.23;6.28;;;461.00;2380.80;;;;;;4876695;29;20085;-62
2021/09/27 03:28:12;;;;;;;14.27;6.53;;;461.00;2380.80;;;;;;4876681;29;20037;-62
2021/09/27 03:31:08;;;;;;;21.40;7.40;;;460.90;2380.80;;;;;;4876349;29;20060;-61
2021/09/27 03:33:52;;;;;;;13.80;6.32;;;460.80;2380.80;;;;;;4875962;29;20615;-63
2021/09/27 03:36:49;;;;;;;13.30;6.78;;;460.80;2380.80;;;;;;4876674;29;20080;-63
2021/09/27 03:39:39;;;;;;;13.35;6.30;;;460.80;2380.80;;;;;;4876624;29;20029;-63
2021/09/27 03:42:46;;;;;;;16.17;7.28;;;460.80;2380.80;;;;;;4876537;29;20036;-59
2021/09/27 03:45:30;;;;;;;13.75;6.60;;;460.90;2380.80;;;;;;4876153;29;20040;-55
2021/09/27 03:48:18;;;;;;;14.02;5.97;;;460.90;2380.80;;;;;;4876264;29;20499;-56
2021/09/27 03:50:50;;;;;;;13.27;6.43;;;460.80;2380.80;;;;;;4876334;29;20029;-55
2021/09/27 03:53:31;;;;;;;14.88;6.25;;;436.10;2355.20;;;;;;4876373;29;20039;-59
2021/09/27 03:56:12;;;;;;;17.27;7.63;;;435.90;2355.20;;;;;;4876436;29;20033;-52
2021/09/27 03:58:44;;;;;;;13.70;6.72;;;435.90;2355.20;;;;;;4875970;29;20384;-57
2021/09/27 04:01:38;;;;;;;18.25;7.00;;;435.90;2355.20;;;;;;4875631;29;20070;-58
2021/09/27 04:04:39;;;;;;;14.90;6.32;;;435.90;2355.20;;;;;;4875991;29;20045;-56
2021/09/27 04:07:25;;;;;;;24.08;7.32;;;436.00;2355.20;;;;;;4854565;29;20089;-55
2021/09/27 04:10:10;;;;;;;14.70;7.15;;;435.90;2355.20;;;;;;4875494;29;20079;-56
2021/09/27 04:13:10;;;;;;;22.15;7.57;;;435.90;2355.20;;;;;;4875994;29;20053;-56
2021/09/27 04:16:18;;;;;;;17.85;7.15;;;436.10;2355.20;;;;;;4875691;29;20112;-56
2021/09/27 04:18:46;;;;;;;14.07;7.65;;;436.10;2355.20;;;;;;4836471;29;20037;-56
2021/09/27 04:21:48;;;;;;;13.00;6.38;;;436.10;2355.20;;;;;;4836467;29;20042;-55
2021/09/27 04:24:19;;;;;;;14.88;6.97;;;436.10;2355.20;;;;;;4836487;29;20397;-57
2021/09/27 04:27:07;;;;;;;17.35;7.13;;;436.00;2355.20;;;;;;4833525;29;20022;-55
2021/09/27 04:29:47;;;;;;;17.15;7.85;;;436.00;2355.20;;;;;;4799921;29;20423;-56
2021/09/27 04:32:57;;;;;;;22.05;6.57;;;435.90;2355.20;;;;;;4821175;29;20129;-56
2021/09/27 04:35:30;;;;;;;15.43;7.15;;;435.90;2355.20;;;;;;4836200;29;20030;-55
2021/09/27 04:37:56;;;;;;;15.20;7.85;;;435.90;2355.20;;;;;;4836622;29;20118;-55
2021/09/27 04:40:49;;;;;;;24.83;9.35;;;435.80;2355.20;;;;;;4836281;29;20546;-56
2021/09/27 04:43:29;;;;;;;21.20;7.82;;;435.80;2355.20;;;;;;4836487;29;20560;-56
2021/09/27 04:46:31;;;;;;;18.45;8.07;;;435.80;2355.20;;;;;;4835758;29;20416;-55
2021/09/27 04:49:33;;;;;;;17.05;6.90;;;435.90;2355.20;;;;;;4746309;30;20052;-56
2021/09/27 04:52:07;;;;;;;17.45;7.85;;;436.00;2355.20;;;;;;4739668;30;20051;-58
2021/09/27 04:54:42;;;;;;;19.58;7.30;;;460.80;2380.80;;;;;;4729065;30;20059;-56
2021/09/27 04:57:24;;;;;;;20.88;7.18;;;460.80;2380.80;;;;;;4781919;30;20071;-56
2021/09/27 05:00:10;;;;;;;26.70;8.73;;;460.90;2380.80;;;;;;4781561;30;20047;-58
2021/09/27 05:02:44;;;;;;;24.73;8.85;;;461.10;2380.80;;;;;;4784969;29;20314;-59
2021/09/27 05:05:35;;;;;;;15.70;7.55;;;461.20;2380.80;;;;;;4792711;29;20035;-56
2021/09/27 05:08:25;;;;;;;22.08;8.77;;;461.30;2380.80;;;;;;4790393;29;20058;-55
2021/09/27 05:10:58;;;;;;;17.73;7.63;;;461.40;2380.80;;;;;;4785101;29;20035;-54
2021/09/27 05:13:41;;;;;;;;;;;461.50;2380.80;;;;;;4783105;30;20439;-59
2021/09/27 05:16:13;;;;;;;22.65;8.07;;;461.70;2380.80;;;;;;4782630;29;19953;-54
2021/09/27 05:19:12;;;;;;;17.23;7.35;;;461.70;2380.80;;;;;;4782349;30;20032;-53
2021/09/27 05:22:09;;;;;;;19.85;7.45;;;461.70;2380.80;;;;;;4778204;30;20496;-55
2021/09/27 05:24:54;;;;;;;18.00;7.40;;;461.70;2380.80;;;;;;4782565;30;20050;-54
2021/09/27 05:27:22;;;;;;;22.25;7.47;;;486.50;2380.80;;;;;;4875783;29;20072;-54
2021/09/27 05:30:13;;;;;;;22.90;8.05;;;486.50;2380.80;;;;;;4875498;29;20061;-54
2021/09/27 05:33:08;;;;;;;25.02;7.63;;;486.70;2380.80;;;;;;4875585;29;20540;-54
2021/09/27 05:35:34;;;;;;;20.63;7.63;;;486.80;2380.80;;;;;;4865649;29;20037;-54
2021/09/27 05:38:21;;;;;;;15.77;7.30;;;486.90;2380.80;;;;;;4875898;29;20124;-54
2021/09/27 05:41:09;;;;;;;17.45;7.47;;;487.10;2380.80;;;;;;4875762;29;20057;-54
2021/09/27 05:43:38;;;;;;;22.63;8.18;;;487.30;2380.80;;;;;;4875685;29;20137;-54
2021/09/27 05:46:39;;;;;;;29.63;13.55;;;512.00;2380.80;;;;;;4875673;29;20488;-54
2021/09/27 05:49:08;;;;;;;16.98;8.32;;;512.40;2380.80;;;;;;4875748;29;20124;-54
2021/09/27 05:51:47;;;;;;;19.45;7.28;;;512.20;2380.80;;;;;;4875849;29;20069;-54
2021/09/27 05:54:30;;;;;;;19.33;8.65;;;512.30;2380.80;;;;;;4875486;29;20025;-54
2021/09/27 05:57:21;;;;;;;17.25;7.47;;;512.60;2380.80;;;;;;4877428;29;20025;-54
2021/09/27 06:00:05;;;;;;;23.77;8.80;;;538.00;2406.40;;;;;;4878955;29;20045;-54
2021/09/27 06:02:30;;;;;;;;;;;563.80;2432.00;;;;;;4879166;29;20039;-53
2021/09/27 06:05:07;;;;;;;27.95;16.92;;;589.60;2432.00;;;;;;4879046;29;19935;-54
2021/09/27 06:07:54;;;;;;;22.95;10.93;;;614.60;2432.00;;;;;;4879067;29;20451;-54
2021/09/27 06:10:30;;;;;;;26.00;13.48;;;615.00;2432.00;;;;;;4878606;29;20112;-62
2021/09/27 06:13:18;;;;;;;23.02;12.35;;;640.70;2432.00;;;;;;4879041;29;20029;-64
2021/09/27 06:16:11;;;;;;;18.73;10.68;;;666.30;2432.00;;;;;;4878791;29;20029;-62
2021/09/27 06:19:15;;;;;;;26.15;10.50;;;691.90;2432.00;;;;;;4878772;29;20025;-56
2021/09/27 06:22:02;;;;;;;25.85;12.55;;;717.30;2380.80;;;;;;4878391;29;20029;-62
2021/09/27 06:24:37;;;;;;;19.42;11.25;;;742.50;2304.00;;;;;;4878767;29;20037;-63
2021/09/27 06:27:09;;;;;;;28.05;12.35;;;742.50;2278.40;;;;;;4878753;29;20029;-64
2021/09/27 06:30:22;;;;;;;24.58;13.50;;;742.40;2252.80;;;;;;4878271;29;20469;-62
2021/09/27 06:33:11;;;;;;;22.65;13.52;;;768.10;2150.40;;;;;;4803002;29;20078;-64
2021/09/27 06:35:40;;;;;;;25.35;13.48;;;793.90;2048.00;;;;;;4803076;29;20042;-65
2021/09/27 06:38:09;;;;;;;23.92;12.30;;;819.30;1971.20;;;;;;4803165;29;20046;-63
2021/09/27 06:40:41;;;;;;;24.10;11.70;;;819.70;1894.40;;;;;;4803026;29;20027;-54
2021/09/27 06:43:11;;;;;;;20.05;11.40;;;819.60;1868.80;;;;;;4802911;29;20073;-55
2021/09/27 06:45:38;;;;;;;27.40;13.77;;;819.60;1868.80;;;;;;4802880;29;20027;-56
2021/09/27 06:48:04;;;;;;;18.90;12.40;;;819.80;1843.20;;;;;;4802809;29;20466;-56
2021/09/27 06:50:30;;;;;;;18.33;12.52;;;844.90;1792.00;;;;;;4802537;29;20050;-56
2021/09/27 06:52:56;;;;;;;19.15;11.88;;;845.00;1792.00;;;;;;4802765;29;20391;-55
2021/09/27 06:55:22;;;;;;;30.25;13.75;;;845.40;1766.40;;;;;;4802505;29;20030;-63
2021/09/27 06:57:47;;;;;;;26.23;12.77;;;870.90;1715.20;;;;;;4802790;29;20486;-59
2021/09/27 07:00:14;;;;;;;22.75;13.23;;;896.00;1664.00;;;;;;4802055;29;20125;-54
2021/09/27 07:02:41;;;;;;;25.50;12.73;;;896.90;1587.20;;;;;;4806771;29;20058;-63
2021/09/27 07:05:09;;;;;;;26.45;10.13;;;921.90;1587.20;;;;;;4804984;29;20121;-64
2021/09/27 07:07:36;;;;;;;19.13;11.45;;;922.10;1536.00;;;;;;4802510;29;20042;-63
2021/09/27 07:10:04;;;;;;;25.33;11.27;;;947.20;1484.80;;;;;;4847833;29;20043;-56
2021/09/27 07:12:29;;;;;;;16.75;10.82;;;922.00;1484.80;;;;;;4877720;29;20025;-55
2021/09/27 07:14:55;;;;;;;25.98;11.40;;;922.10;1510.40;;;;;;4878154;29;20032;-58
2021/09/27 07:17:21;;;;;;;16.95;10.60;;;896.60;1510.40;;;;;;4877727;29;20033;-55
2021/09/27 07:19:46;;;;;;;29.67;12.48;;;921.70;1536.00;;;;;;4877717;29;20035;-56
2021/09/27 07:22:12;;;;;;;24.55;12.95;;;947.20;1459.20;;;;;;4877638;29;20492;-55
2021/09/27 07:24:39;;;;;;;24.17;11.32;;;922.00;1484.80;;;;;;4876329;29;20051;-55
2021/09/27 07:27:05;;;;;;;17.00;11.80;;;922.10;1484.80;;;;;;4877983;29;20424;-64
2021/09/27 07:29:31;;;;;;;25.80;11.77;;;922.40;1459.20;;;;;;4877616;29;20036;-56
2021/09/27 07:31:57;;;;;;;22.17;10.70;;;922.40;1433.60;;;;;;4877548;29;20060;-64
2021/09/27 07:34:23;;;;;;;19.55;10.68;;;922.00;1433.60;;;;;;4877447;29;20033;-65
2021/09/27 07:36:49;;;;;;;20.88;10.93;;;922.50;1408.00;;;;;;4877252;29;20021;-62
2021/09/27 07:39:15;;;;;;;24.88;12.68;;;947.70;1356.80;;;;;;4877658;29;20068;-67
2021/09/27 07:41:40;;;;;;;29.30;12.25;;;973.00;1356.80;;;;;;4877164;29;20497;-55
2021/09/27 07:44:07;;;;;;;24.25;11.25;;;973.10;1331.20;;;;;;4877187;29;20037;-54
2021/09/27 07:46:34;;;;;;;31.00;11.88;;;973.40;1331.20;;;;;;4877042;29;20071;-54
2021/09/27 07:49:00;;;;;;;22.85;12.30;;;998.40;1305.60;;;;;;4877202;29;20180;-55
2021/09/27 07:51:27;;;;;;;26.20;12.40;;;998.60;1305.60;;;;;;4877193;29;20403;-56
2021/09/27 07:53:53;;;;;;;18.58;12.20;;;999.20;1254.40;;;;;;4876827;29;20045;-57
2021/09/27 07:56:19;;;;;;;19.13;12.35;;;1024.10;1228.80;;;;;;4876872;29;20211;-56
2021/09/27 07:58:44;;;;;;;22.70;12.32;;;999.00;1254.40;;;;;;4877189;29;20581;-56
2021/09/27 08:01:13;;;;;;;25.10;11.95;;;999.10;1228.80;;;;;;4876671;29;20111;-56
2021/09/27 08:03:39;;;;;;;24.17;11.18;;;1024.60;1177.60;;;;;;4876747;29;20045;-57
2021/09/27 08:06:05;;;;;;;22.83;11.55;;;1024.50;1203.20;;;;;;4877004;29;20229;-56
2021/09/27 08:08:32;;;;;;;26.90;11.32;;;1024.60;1152.00;;;;;;4876763;29;20045;-57
2021/09/27 08:10:58;;;;;;;18.13;10.95;;;1024.90;1152.00;;;;;;4876842;29;20044;-55
2021/09/27 08:13:24;;;;;;;21.42;12.30;;;1049.60;1177.60;;;;;;4876694;29;20388;-55
2021/09/27 08:15:53;;;;;;;19.05;11.10;;;1050.20;1126.40;;;;;;4876424;29;20032;-55
2021/09/27 08:18:21;;;;;;;20.05;11.70;;;1050.40;1100.80;;;;;;4876536;29;20029;-61
2021/09/27 08:20:51;;;;;;;19.38;11.25;;;1075.20;1100.80;;;;;;4876568;29;20032;-54
2021/09/27 08:23:18;;;;;;;19.58;11.50;;;1075.50;1100.80;;;;;;4876761;29;20029;-59
2021/09/27 08:25:44;;;;;;;21.98;11.23;;;1050.10;1100.80;;;;;;4876583;29;20037;-55
2021/09/27 08:28:14;;;;;;;22.35;11.70;;;1050.40;1075.20;;;;;;4876520;29;20040;-54
2021/09/27 08:30:44;;;;;;;15.40;10.30;;;1050.40;1075.20;;;;;;4876016;29;20136;-56
2021/09/27 08:33:10;;;;;;;17.42;10.63;;;1050.40;1075.20;;;;;;4876426;29;20040;-55
2021/09/27 08:35:37;;;;;;;21.08;9.60;;;1050.10;1075.20;;;;;;4876415;29;20029;-56
2021/09/27 08:38:05;;;;;;;16.20;9.90;;;1050.00;1075.20;;;;;;4876116;29;20116;-56
2021/09/27 08:41:09;;;;;;;20.75;9.30;;;1050.40;1049.60;;;;;;4876432;29;20040;-55
2021/09/27 08:43:53;;;;;;;18.30;9.02;;;1024.70;1075.20;;;;;;4862194;29;20038;-55
2021/09/27 08:46:49;;;;;;;16.60;8.98;;;1024.00;1126.40;;;;;;4840820;29;20033;-58
2021/09/27 08:49:33;;;;;;;19.88;10.30;;;998.40;1152.00;;;;;;4857723;29;20568;-55
2021/09/27 08:52:00;;;;;;;21.75;10.93;;;972.80;1177.60;;;;;;4857645;29;20033;-55
2021/09/27 08:54:29;;;;;;;13.52;9.85;;;973.10;1126.40;;;;;;4867841;29;20165;-56
2021/09/27 08:57:06;;;;;;;15.75;9.27;;;948.10;1152.00;;;;;;4857239;29;20116;-56
2021/09/27 08:59:41;;;;;;;18.92;8.25;;;947.20;1177.60;;;;;;4856899;29;20071;-55
2021/09/27 09:02:38;;;;;;;17.92;7.80;;;921.80;1203.20;;;;;;4856629;29;20061;-53
2021/09/27 09:05:04;;;;;;;21.05;7.03;;;871.20;1203.20;;;;;;4837132;29;20053;-54
2021/09/27 09:07:31;;;;;;;17.95;6.72;;;871.00;1228.80;;;;;;4856398;29;20018;-54
2021/09/27 09:10:02;;;;;;;18.65;7.13;;;870.50;1280.00;;;;;;4853607;29;20029;-54
2021/09/27 09:12:37;;;;;;;16.30;7.10;;;845.70;1280.00;;;;;;4872050;29;20108;-54
2021/09/27 09:15:20;;;;;;;9.73;5.65;;;845.60;1280.00;;;;;;4871789;29;20032;-53
2021/09/27 09:17:48;;;;;;;15.05;6.28;;;845.20;1305.60;;;;;;4868433;29;20390;-55
2021/09/27 09:20:31;;;;;;;13.30;6.45;;;844.80;1331.20;;;;;;4864506;29;20839;-54
2021/09/27 09:22:58;;;;;;;10.32;5.70;;;819.80;1305.60;;;;;;4851467;29;20033;-54
2021/09/27 09:25:32;;;;;;;12.20;6.05;;;819.60;1331.20;;;;;;4866951;29;20500;-53
2021/09/27 09:27:59;;;;;;;10.88;5.78;;;819.30;1305.60;;;;;;4863400;29;20082;-55
2021/09/27 09:30:35;;;;;;;14.43;6.03;;;819.30;1331.20;;;;;;4861462;29;20152;-56
2021/09/27 09:33:00;;;;;;;13.10;6.45;;;819.50;1305.60;;;;;;4864923;29;20048;-54
2021/09/27 09:35:28;;;;;;;14.82;6.30;;;819.30;1382.40;;;;;;4865240;29;20025;-53
2021/09/27 09:38:21;;;;;;;14.18;6.47;;;794.40;1382.40;;;;;;4865664;29;20017;-53
2021/09/27 09:40:54;;;;;;;;;;;819.20;1356.80;;;;;;4866152;29;20021;-53
2021/09/27 09:43:33;;;;;;;15.75;5.50;;;794.30;1331.20;;;;;;4866272;29;20342;-53
2021/09/27 09:46:07;;;;;;;10.18;5.75;;;794.20;1382.40;;;;;;4866864;29;20173;-53
2021/09/27 09:48:37;;;;;;;12.23;5.53;;;794.20;1382.40;;;;;;4874669;29;20093;-59
2021/09/27 09:51:51;;;;;;;12.93;5.18;;;794.10;1356.80;;;;;;4875522;29;20020;-60
2021/09/27 09:54:22;;;;;;;9.30;4.90;;;794.30;1356.80;;;;;;4853748;29;20033;-55
2021/09/27 09:57:04;;;;;;;9.13;5.65;;;794.40;1382.40;;;;;;4861528;29;20036;-52
2021/09/27 09:59:39;;;;;;;11.98;5.13;;;794.50;1382.40;;;;;;4873834;29;20396;-54
2021/09/27 10:02:18;;;;;;;12.38;5.32;;;819.20;1356.80;;;;;;4875757;29;20033;-54
2021/09/27 10:04:51;;;;;;;11.10;5.72;;;794.50;1356.80;;;;;;4861758;29;20056;-54
2021/09/27 10:07:24;;;;;;;10.50;4.82;;;794.50;1331.20;;;;;;4868060;29;20033;-55
2021/09/27 10:10:01;;;;;;;9.90;5.65;;;794.10;1331.20;;;;;;4869241;29;20029;-53
2021/09/27 10:12:48;;;;;;;7.90;4.97;;;794.50;1331.20;;;;;;4876058;29;20480;-53
2021/09/27 10:15:32;;;;;;;10.23;4.68;;;794.50;1331.20;;;;;;4861251;29;20476;-54
2021/09/27 10:18:14;;;;;;;10.02;3.85;;;794.10;1356.80;;;;;;4860120;29;20036;-54
2021/09/27 10:20:51;;;;;;;10.63;5.70;;;794.20;1356.80;;;;;;4843381;29;20081;-54
2021/09/27 10:23:30;;;;;;;9.40;5.45;;;794.20;1382.40;;;;;;4860028;29;20545;-54
2021/09/27 10:26:17;;;;;;;9.30;4.95;;;794.20;1356.80;;;;;;4843481;29;20037;-53
2021/09/27 10:28:43;;;;;;;8.75;4.85;;;794.00;1356.80;;;;;;4859748;29;20026;-54
2021/09/27 10:31:11;;;;;;;10.75;5.82;;;794.00;1331.20;;;;;;4859575;29;20053;-54
2021/09/27 10:33:42;;;;;;;13.45;4.97;;;793.70;1408.00;;;;;;4859858;29;20053;-54
2021/09/27 10:36:39;;;;;;;8.57;5.47;;;793.70;1382.40;;;;;;4860135;29;20116;-55
2021/09/27 10:39:08;;;;;;;12.88;5.22;;;793.70;1356.80;;;;;;4859872;29;20071;-54
2021/09/27 10:41:40;;;;;;;8.52;5.13;;;793.70;1382.40;;;;;;4859761;29;20033;-54
2021/09/27 10:44:13;;;;;;;9.23;5.78;;;793.70;1382.40;;;;;;4859414;29;20030;-54
2021/09/27 10:46:42;;;;;;;9.48;5.15;;;793.60;1408.00;;;;;;4859458;29;20037;-54
2021/09/27 10:49:21;;;;;;;7.72;4.80;;;768.80;1382.40;;;;;;4859895;29;20037;-54
2021/09/27 10:51:53;;;;;;;7.30;4.80;;;793.60;1382.40;;;;;;4859717;29;20026;-55
2021/09/27 10:54:33;;;;;;;9.32;5.10;;;768.90;1356.80;;;;;;4859669;29;20525;-53
2021/09/27 10:57:01;;;;;;;7.72;4.95;;;793.70;1408.00;;;;;;4859607;29;20469;-54
2021/09/27 10:59:34;;;;;;;11.73;5.60;;;793.70;1382.40;;;;;;4859689;29;20033;-53
2021/09/27 11:02:08;;;;;;;11.77;5.15;;;768.90;1382.40;;;;;;4859255;29;20396;-54
2021/09/27 11:04:46;;;;;;;10.48;5.97;;;768.90;1356.80;;;;;;4859430;29;20069;-54
2021/09/27 11:07:18;;;;;;;7.63;5.25;;;768.90;1382.40;;;;;;4859141;29;20046;-53
2021/09/27 11:09:44;;;;;;;14.27;5.73;;;793.70;1382.40;;;;;;4859430;29;20476;-54
2021/09/27 11:12:24;;;;;;;10.90;6.15;;;793.70;1382.40;;;;;;4842272;29;20404;-61
2021/09/27 11:15:01;;;;;;;8.70;6.20;;;793.70;1382.40;;;;;;4843804;29;20025;-60
2021/09/27 11:17:31;;;;;;;11.90;5.68;;;768.90;1382.40;;;;;;4859256;29;20560;-62
2021/09/27 11:20:13;;;;;;;11.38;5.75;;;768.90;1382.40;;;;;;4859337;29;20048;-61
2021/09/27 11:23:05;;;;;;;14.02;5.22;;;768.90;1382.40;;;;;;4859040;29;20033;-61
2021/09/27 11:25:38;;;;;;;10.93;5.63;;;768.90;1382.40;;;;;;4853637;29;20049;-60
2021/09/27 11:28:07;;;;;;;10.10;5.50;;;793.70;1408.00;;;;;;4858949;29;20030;-54
2021/09/27 11:31:17;;;;;;;12.55;6.25;;;768.90;1382.40;;;;;;4858481;29;20382;-54
2021/09/27 11:33:47;;;;;;;9.63;5.88;;;768.90;1356.80;;;;;;4858596;29;20496;-54
2021/09/27 11:36:13;;;;;;;12.50;6.85;;;793.70;1408.00;;;;;;4851082;29;20112;-54
2021/09/27 11:38:42;;;;;;;10.60;5.53;;;793.70;1408.00;;;;;;4858670;29;20100;-54
2021/09/27 11:41:10;;;;;;;15.02;6.22;;;793.70;1382.40;;;;;;4858766;29;20065;-54
2021/09/27 11:43:55;;;;;;;13.60;7.25;;;793.70;1382.40;;;;;;4858752;29;20045;-62
2021/09/27 11:46:32;;;;;;;10.85;5.80;;;768.90;1356.80;;;;;;4852338;29;20095;-63
2021/09/27 11:52:16;;;;;;;12.38;6.07;;;768.70;1382.40;;;;;;4858853;29;20442;-66
2021/09/27 11:54:53;;;;;;;11.95;6.55;;;768.80;1356.80;;;;;;4800851;29;20486;-53
2021/09/27 11:57:25;;;;;;;11.80;5.80;;;768.60;1382.40;;;;;;4801773;29;20088;-54
2021/09/27 12:00:17;;;;;;;13.30;5.88;;;768.70;1408.00;;;;;;4801436;29;20043;-54
2021/09/27 12:03:13;;;;;;;11.85;6.18;;;793.70;1433.60;;;;;;4801446;29;20042;-54
2021/09/27 12:06:01;;;;;;;12.15;5.70;;;793.70;1382.40;;;;;;4801482;29;20050;-54
2021/09/27 12:08:30;;;;;;;10.35;5.97;;;793.70;1382.40;;;;;;4801738;29;20034;-54
2021/09/27 12:10:59;;;;;;;10.60;5.68;;;793.70;1382.40;;;;;;4801661;29;20070;-54
2021/09/27 12:13:43;;;;;;;15.32;7.32;;;793.80;1408.00;;;;;;4801523;29;20035;-53
2021/09/27 12:16:22;;;;;;;16.52;7.20;;;768.90;1382.40;;;;;;4801331;29;20057;-54
2021/09/27 12:18:58;;;;;;;17.42;6.40;;;768.90;1356.80;;;;;;4801442;29;20038;-54
2021/09/27 12:21:32;;;;;;;11.52;6.40;;;768.90;1356.80;;;;;;4801485;29;20063;-53
2021/09/27 12:24:11;;;;;;;13.02;6.35;;;768.90;1356.80;;;;;;4801459;29;20180;-54
2021/09/27 12:26:44;;;;;;;15.30;7.90;;;793.70;1382.40;;;;;;4801314;29;20145;-54
2021/09/27 12:29:19;;;;;;;15.93;7.78;;;768.90;1382.40;;;;;;4800779;29;20043;-54
2021/09/27 12:32:07;;;;;;;15.20;7.03;;;768.70;1356.80;;;;;;4832143;29;20053;-54
2021/09/27 12:34:44;;;;;;;12.07;7.20;;;768.90;1408.00;;;;;;4852849;29;20029;-54
2021/09/27 12:37:12;;;;;;;15.90;6.35;;;793.70;1408.00;;;;;;4857804;29;20036;-54
2021/09/27 12:39:40;;;;;;;13.60;7.97;;;793.70;1408.00;;;;;;4857927;29;20042;-55
2021/09/27 12:42:12;;;;;;;12.23;7.63;;;793.70;1433.60;;;;;;4857766;29;20044;-52
2021/09/27 12:44:45;;;;;;;15.95;8.13;;;793.70;1433.60;;;;;;4857961;29;20116;-55
2021/09/27 12:47:10;;;;;;;;;;;793.80;1408.00;;;;;;4841657;29;20029;-56
2021/09/27 12:49:40;;;;;;;17.88;8.68;;;793.70;1408.00;;;;;;4857982;29;19912;-54
2021/09/27 12:52:10;;;;;;;12.13;6.80;;;793.80;1408.00;;;;;;4857916;29;20037;-54
2021/09/27 12:54:46;;;;;;;11.25;7.95;;;793.80;1408.00;;;;;;4857904;29;20025;-54
2021/09/27 12:57:27;;;;;;;12.95;8.23;;;793.70;1408.00;;;;;;4857687;29;20108;-55
2021/09/27 12:59:55;;;;;;;15.32;8.65;;;793.90;1408.00;;;;;;4857552;29;20022;-55